sensor_id;sensor_type;location;lat;lon;timestamp;temperature;humidity
76577;DHT22;65441;44.748;37.600;2022-12-08T00:01:15;9.72;91.37
76577;DHT22;65441;44.748;37.600;2022-12-08T00:03:45;9.80;91.18
76577;DHT22;65441;44.748;37.600;2022-12-08T00:06:22;9.86;90.79
76577;DHT22;65441;44.748;37.600;2022-12-08T00:09:13;9.98;90.37
76577;DHT22;65441;44.748;37.600;2022-12-08T00:11:54;10.05;89.61
76577;DHT22;65441;44.748;37.600;2022-12-08T00:14:25;10.18;88.83
76577;DHT22;65441;44.748;37.600;2022-12-08T00:16:54;10.12;88.85
76577;DHT22;65441;44.748;37.600;2022-12-08T00:19:24;10.15;89.15
76577;DHT22;65441;44.748;37.600;2022-12-08T00:21:55;10.16;88.28
76577;DHT22;65441;44.748;37.600;2022-12-08T00:24:29;10.20;88.28
76577;DHT22;65441;44.748;37.600;2022-12-08T00:26:58;10.13;87.88
76577;DHT22;65441;44.748;37.600;2022-12-08T00:29:27;10.14;87.81
76577;DHT22;65441;44.748;37.600;2022-12-08T00:31:55;10.93;96.88
76577;DHT22;65441;44.748;37.600;2022-12-08T00:34:24;11.47;97.40
76577;DHT22;65441;44.748;37.600;2022-12-08T00:36:55;11.81;93.82
76577;DHT22;65441;44.748;37.600;2022-12-08T00:39:23;11.66;89.92
76577;DHT22;65441;44.748;37.600;2022-12-08T00:41:52;11.72;90.35
76577;DHT22;65441;44.748;37.600;2022-12-08T00:44:39;11.67;89.02
76577;DHT22;65441;44.748;37.600;2022-12-08T00:47:08;11.49;83.35
76577;DHT22;65441;44.748;37.600;2022-12-08T00:49:37;12.04;90.50
76577;DHT22;65441;44.748;37.600;2022-12-08T00:52:08;11.54;85.09
76577;DHT22;65441;44.748;37.600;2022-12-08T00:54:37;11.27;83.21
76577;DHT22;65441;44.748;37.600;2022-12-08T00:57:05;11.24;83.94
76577;DHT22;65441;44.748;37.600;2022-12-08T00:59:34;11.40;88.70
76577;DHT22;65441;44.748;37.600;2022-12-08T01:02:03;11.11;89.37
76577;DHT22;65441;44.748;37.600;2022-12-08T01:04:32;11.07;88.37
76577;DHT22;65441;44.748;37.600;2022-12-08T01:07:01;11.17;89.48
76577;DHT22;65441;44.748;37.600;2022-12-08T01:09:31;11.40;88.82
76577;DHT22;65441;44.748;37.600;2022-12-08T01:12:00;11.54;86.31
76577;DHT22;65441;44.748;37.600;2022-12-08T01:14:29;11.58;81.52
76577;DHT22;65441;44.748;37.600;2022-12-08T01:16:58;11.91;84.19
76577;DHT22;65441;44.748;37.600;2022-12-08T01:19:26;12.08;86.97
76577;DHT22;65441;44.748;37.600;2022-12-08T01:21:56;12.06;85.84
76577;DHT22;65441;44.748;37.600;2022-12-08T01:24:25;12.10;87.77
76577;DHT22;65441;44.748;37.600;2022-12-08T01:26:55;12.47;86.91
76577;DHT22;65441;44.748;37.600;2022-12-08T01:29:26;11.87;79.58
76577;DHT22;65441;44.748;37.600;2022-12-08T01:31:57;11.81;82.26
76577;DHT22;65441;44.748;37.600;2022-12-08T01:34:26;12.11;84.15
76577;DHT22;65441;44.748;37.600;2022-12-08T01:36:55;12.36;83.16
76577;DHT22;65441;44.748;37.600;2022-12-08T01:39:23;12.22;85.47
76577;DHT22;65441;44.748;37.600;2022-12-08T01:41:52;12.51;86.18
76577;DHT22;65441;44.748;37.600;2022-12-08T01:44:55;12.47;81.20
76577;DHT22;65441;44.748;37.600;2022-12-08T01:47:28;12.72;83.94
76577;DHT22;65441;44.748;37.600;2022-12-08T01:49:58;12.58;76.67
76577;DHT22;65441;44.748;37.600;2022-12-08T01:52:31;12.29;78.95
76577;DHT22;65441;44.748;37.600;2022-12-08T01:55:03;12.32;81.45
76577;DHT22;65441;44.748;37.600;2022-12-08T01:57:38;12.52;84.70
76577;DHT22;65441;44.748;37.600;2022-12-08T02:00:12;12.69;83.37
76577;DHT22;65441;44.748;37.600;2022-12-08T02:02:47;12.75;83.42
76577;DHT22;65441;44.748;37.600;2022-12-08T02:05:18;12.91;83.15
76577;DHT22;65441;44.748;37.600;2022-12-08T02:07:48;13.04;79.01
76577;DHT22;65441;44.748;37.600;2022-12-08T02:10:19;12.87;82.68
76577;DHT22;65441;44.748;37.600;2022-12-08T02:12:50;12.94;75.93
76577;DHT22;65441;44.748;37.600;2022-12-08T02:15:24;12.84;79.69
76577;DHT22;65441;44.748;37.600;2022-12-08T02:18:07;12.81;75.81
76577;DHT22;65441;44.748;37.600;2022-12-08T02:20:51;12.86;79.95
76577;DHT22;65441;44.748;37.600;2022-12-08T02:23:28;13.12;79.59
76577;DHT22;65441;44.748;37.600;2022-12-08T02:29:26;13.23;78.23
76577;DHT22;65441;44.748;37.600;2022-12-08T02:32:16;13.09;80.43
76577;DHT22;65441;44.748;37.600;2022-12-08T02:34:51;12.90;79.91
76577;DHT22;65441;44.748;37.600;2022-12-08T02:37:28;12.92;79.49
76577;DHT22;65441;44.748;37.600;2022-12-08T02:40:02;12.89;79.22
76577;DHT22;65441;44.748;37.600;2022-12-08T02:42:38;12.78;80.00
76577;DHT22;65441;44.748;37.600;2022-12-08T02:45:13;12.58;77.27
76577;DHT22;65441;44.748;37.600;2022-12-08T02:47:45;12.74;78.85
76577;DHT22;65441;44.748;37.600;2022-12-08T02:50:15;12.97;76.73
76577;DHT22;65441;44.748;37.600;2022-12-08T02:52:45;12.30;79.13
76577;DHT22;65441;44.748;37.600;2022-12-08T02:55:24;12.57;78.65
76577;DHT22;65441;44.748;37.600;2022-12-08T02:58:30;12.02;78.37
76577;DHT22;65441;44.748;37.600;2022-12-08T03:01:13;11.75;79.53
76577;DHT22;65441;44.748;37.600;2022-12-08T03:03:49;11.97;84.39
76577;DHT22;65441;44.748;37.600;2022-12-08T03:06:27;12.15;82.47
76577;DHT22;65441;44.748;37.600;2022-12-08T03:09:00;11.81;77.95
76577;DHT22;65441;44.748;37.600;2022-12-08T03:11:35;11.42;80.74
76577;DHT22;65441;44.748;37.600;2022-12-08T03:14:09;11.20;81.96
76577;DHT22;65441;44.748;37.600;2022-12-08T03:16:42;11.07;81.59
76577;DHT22;65441;44.748;37.600;2022-12-08T03:19:15;10.86;80.80
76577;DHT22;65441;44.748;37.600;2022-12-08T03:21:50;10.72;80.30
76577;DHT22;65441;44.748;37.600;2022-12-08T03:24:21;10.53;81.95
76577;DHT22;65441;44.748;37.600;2022-12-08T03:26:54;10.30;81.46
76577;DHT22;65441;44.748;37.600;2022-12-08T03:29:25;10.13;81.36
76577;DHT22;65441;44.748;37.600;2022-12-08T03:31:57;9.95;80.56
76577;DHT22;65441;44.748;37.600;2022-12-08T03:34:28;9.82;81.73
76577;DHT22;65441;44.748;37.600;2022-12-08T03:37:01;9.67;82.05
76577;DHT22;65441;44.748;37.600;2022-12-08T03:39:29;9.56;83.55
76577;DHT22;65441;44.748;37.600;2022-12-08T03:41:58;9.54;84.61
76577;DHT22;65441;44.748;37.600;2022-12-08T03:44:27;9.52;84.55
76577;DHT22;65441;44.748;37.600;2022-12-08T03:46:56;9.41;83.44
76577;DHT22;65441;44.748;37.600;2022-12-08T03:49:25;9.40;83.57
76577;DHT22;65441;44.748;37.600;2022-12-08T03:51:54;9.33;85.32
76577;DHT22;65441;44.748;37.600;2022-12-08T03:54:24;9.35;85.29
76577;DHT22;65441;44.748;37.600;2022-12-08T03:56:52;9.35;85.25
76577;DHT22;65441;44.748;37.600;2022-12-08T03:59:21;9.34;84.49
76577;DHT22;65441;44.748;37.600;2022-12-08T04:01:50;9.33;85.42
76577;DHT22;65441;44.748;37.600;2022-12-08T04:04:19;9.31;84.58
76577;DHT22;65441;44.748;37.600;2022-12-08T04:06:47;9.29;85.12
76577;DHT22;65441;44.748;37.600;2022-12-08T04:09:16;9.27;85.46
76577;DHT22;65441;44.748;37.600;2022-12-08T04:11:47;9.29;86.09
76577;DHT22;65441;44.748;37.600;2022-12-08T04:14:15;9.33;85.45
76577;DHT22;65441;44.748;37.600;2022-12-08T04:16:44;9.35;87.04
76577;DHT22;65441;44.748;37.600;2022-12-08T04:19:13;9.46;86.53
76577;DHT22;65441;44.748;37.600;2022-12-08T04:21:42;9.61;88.70
76577;DHT22;65441;44.748;37.600;2022-12-08T04:24:10;9.78;89.28
76577;DHT22;65441;44.748;37.600;2022-12-08T04:26:39;9.88;88.99
76577;DHT22;65441;44.748;37.600;2022-12-08T04:29:10;9.91;88.58
76577;DHT22;65441;44.748;37.600;2022-12-08T04:31:38;9.99;88.43
76577;DHT22;65441;44.748;37.600;2022-12-08T04:34:08;10.03;88.07
76577;DHT22;65441;44.748;37.600;2022-12-08T04:36:37;10.08;88.15
76577;DHT22;65441;44.748;37.600;2022-12-08T04:39:06;10.10;88.05
76577;DHT22;65441;44.748;37.600;2022-12-08T04:41:35;10.12;88.16
76577;DHT22;65441;44.748;37.600;2022-12-08T04:44:04;10.14;88.12
76577;DHT22;65441;44.748;37.600;2022-12-08T04:46:34;10.20;87.97
76577;DHT22;65441;44.748;37.600;2022-12-08T04:49:03;10.24;87.70
76577;DHT22;65441;44.748;37.600;2022-12-08T04:51:31;10.28;87.78
76577;DHT22;65441;44.748;37.600;2022-12-08T04:54:00;10.33;87.63
76577;DHT22;65441;44.748;37.600;2022-12-08T04:56:29;10.41;87.19
76577;DHT22;65441;44.748;37.600;2022-12-08T04:58:58;10.29;87.40
76577;DHT22;65441;44.748;37.600;2022-12-08T05:01:27;10.30;87.41
76577;DHT22;65441;44.748;37.600;2022-12-08T05:03:57;10.37;87.35
76577;DHT22;65441;44.748;37.600;2022-12-08T05:06:26;10.39;87.08
76577;DHT22;65441;44.748;37.600;2022-12-08T05:08:55;10.39;87.12
76577;DHT22;65441;44.748;37.600;2022-12-08T05:11:23;10.38;87.05
76577;DHT22;65441;44.748;37.600;2022-12-08T05:13:52;10.42;86.93
76577;DHT22;65441;44.748;37.600;2022-12-08T05:16:21;10.39;87.02
76577;DHT22;65441;44.748;37.600;2022-12-08T05:18:50;10.37;87.18
76577;DHT22;65441;44.748;37.600;2022-12-08T05:21:20;10.44;87.06
76577;DHT22;65441;44.748;37.600;2022-12-08T05:23:49;10.43;87.03
76577;DHT22;65441;44.748;37.600;2022-12-08T05:26:17;10.39;87.43
76577;DHT22;65441;44.748;37.600;2022-12-08T05:28:46;10.44;87.22
76577;DHT22;65441;44.748;37.600;2022-12-08T05:31:16;10.51;86.95
76577;DHT22;65441;44.748;37.600;2022-12-08T05:33:45;10.57;86.96
76577;DHT22;65441;44.748;37.600;2022-12-08T05:36:14;10.66;86.87
76577;DHT22;65441;44.748;37.600;2022-12-08T05:38:45;10.72;86.25
76577;DHT22;65441;44.748;37.600;2022-12-08T05:41:17;10.73;86.28
76577;DHT22;65441;44.748;37.600;2022-12-08T05:43:46;10.75;86.69
76577;DHT22;65441;44.748;37.600;2022-12-08T05:46:15;10.82;86.34
76577;DHT22;65441;44.748;37.600;2022-12-08T05:48:45;10.82;86.30
76577;DHT22;65441;44.748;37.600;2022-12-08T05:51:18;10.85;85.97
76577;DHT22;65441;44.748;37.600;2022-12-08T05:53:49;10.86;86.06
76577;DHT22;65441;44.748;37.600;2022-12-08T05:56:19;10.85;86.25
76577;DHT22;65441;44.748;37.600;2022-12-08T05:58:48;10.85;86.50
76577;DHT22;65441;44.748;37.600;2022-12-08T06:01:22;10.81;86.22
76577;DHT22;65441;44.748;37.600;2022-12-08T06:03:51;10.79;86.53
76577;DHT22;65441;44.748;37.600;2022-12-08T06:06:20;10.86;86.83
76577;DHT22;65441;44.748;37.600;2022-12-08T06:08:50;10.81;86.91
76577;DHT22;65441;44.748;37.600;2022-12-08T06:11:20;10.84;86.87
76577;DHT22;65441;44.748;37.600;2022-12-08T06:14:02;10.85;86.86
76577;DHT22;65441;44.748;37.600;2022-12-08T06:16:31;10.87;86.94
76577;DHT22;65441;44.748;37.600;2022-12-08T06:18:59;10.93;86.77
76577;DHT22;65441;44.748;37.600;2022-12-08T06:21:28;11.00;87.08
76577;DHT22;65441;44.748;37.600;2022-12-08T06:23:58;10.97;87.54
76577;DHT22;65441;44.748;37.600;2022-12-08T06:26:27;10.94;87.93
76577;DHT22;65441;44.748;37.600;2022-12-08T06:28:56;10.89;88.19
76577;DHT22;65441;44.748;37.600;2022-12-08T06:31:27;10.90;88.33
76577;DHT22;65441;44.748;37.600;2022-12-08T06:33:55;10.93;88.70
76577;DHT22;65441;44.748;37.600;2022-12-08T06:36:26;11.01;88.60
76577;DHT22;65441;44.748;37.600;2022-12-08T06:38:55;11.04;88.47
76577;DHT22;65441;44.748;37.600;2022-12-08T06:41:26;11.10;88.22
76577;DHT22;65441;44.748;37.600;2022-12-08T06:43:55;11.03;88.63
76577;DHT22;65441;44.748;37.600;2022-12-08T06:46:24;11.11;88.51
76577;DHT22;65441;44.748;37.600;2022-12-08T06:48:53;11.10;88.65
76577;DHT22;65441;44.748;37.600;2022-12-08T06:51:22;11.10;88.70
76577;DHT22;65441;44.748;37.600;2022-12-08T06:53:50;11.09;88.95
76577;DHT22;65441;44.748;37.600;2022-12-08T06:56:19;11.03;89.63
76577;DHT22;65441;44.748;37.600;2022-12-08T06:58:52;11.07;89.54
76577;DHT22;65441;44.748;37.600;2022-12-08T07:01:21;11.08;89.67
76577;DHT22;65441;44.748;37.600;2022-12-08T07:03:50;11.10;89.70
76577;DHT22;65441;44.748;37.600;2022-12-08T07:06:21;11.13;89.97
76577;DHT22;65441;44.748;37.600;2022-12-08T07:08:50;11.15;89.65
76577;DHT22;65441;44.748;37.600;2022-12-08T07:11:19;11.24;89.76
76577;DHT22;65441;44.748;37.600;2022-12-08T07:13:48;11.20;89.21
76577;DHT22;65441;44.748;37.600;2022-12-08T07:16:18;11.27;89.86
76577;DHT22;65441;44.748;37.600;2022-12-08T07:18:47;11.36;89.31
76577;DHT22;65441;44.748;37.600;2022-12-08T07:21:16;11.41;89.10
76577;DHT22;65441;44.748;37.600;2022-12-08T07:23:46;11.43;89.05
76577;DHT22;65441;44.748;37.600;2022-12-08T07:26:15;11.46;88.96
76577;DHT22;65441;44.748;37.600;2022-12-08T07:28:44;11.38;89.30
76577;DHT22;65441;44.748;37.600;2022-12-08T07:31:19;11.31;89.17
76577;DHT22;65441;44.748;37.600;2022-12-08T07:33:49;11.31;89.38
76577;DHT22;65441;44.748;37.600;2022-12-08T07:36:18;11.25;89.21
76577;DHT22;65441;44.748;37.600;2022-12-08T07:38:47;11.12;89.67
76577;DHT22;65441;44.748;37.600;2022-12-08T07:41:18;11.13;90.15
76577;DHT22;65441;44.748;37.600;2022-12-08T07:43:48;11.20;89.81
76577;DHT22;65441;44.748;37.600;2022-12-08T07:46:20;11.19;89.71
76577;DHT22;65441;44.748;37.600;2022-12-08T07:48:50;11.27;89.74
76577;DHT22;65441;44.748;37.600;2022-12-08T07:51:20;11.33;89.31
76577;DHT22;65441;44.748;37.600;2022-12-08T07:53:49;11.40;88.75
76577;DHT22;65441;44.748;37.600;2022-12-08T07:56:18;11.43;89.28
76577;DHT22;65441;44.748;37.600;2022-12-08T07:58:47;11.52;89.34
76577;DHT22;65441;44.748;37.600;2022-12-08T08:01:23;11.60;88.51
76577;DHT22;65441;44.748;37.600;2022-12-08T08:03:53;11.62;89.08
76577;DHT22;65441;44.748;37.600;2022-12-08T08:06:22;11.68;88.86
76577;DHT22;65441;44.748;37.600;2022-12-08T08:08:51;11.73;89.37
76577;DHT22;65441;44.748;37.600;2022-12-08T08:11:20;11.74;89.57
76577;DHT22;65441;44.748;37.600;2022-12-08T08:13:49;11.78;88.96
76577;DHT22;65441;44.748;37.600;2022-12-08T08:16:19;11.84;88.95
76577;DHT22;65441;44.748;37.600;2022-12-08T08:18:50;11.99;88.96
76577;DHT22;65441;44.748;37.600;2022-12-08T08:21:19;12.07;89.12
76577;DHT22;65441;44.748;37.600;2022-12-08T08:23:48;12.13;88.78
76577;DHT22;65441;44.748;37.600;2022-12-08T08:26:17;12.29;88.64
76577;DHT22;65441;44.748;37.600;2022-12-08T08:28:46;12.40;88.29
76577;DHT22;65441;44.748;37.600;2022-12-08T08:31:16;12.64;88.26
76577;DHT22;65441;44.748;37.600;2022-12-08T08:33:45;12.92;85.25
76577;DHT22;65441;44.748;37.600;2022-12-08T08:36:17;13.05;85.61
76577;DHT22;65441;44.748;37.600;2022-12-08T08:38:46;13.20;83.00
76577;DHT22;65441;44.748;37.600;2022-12-08T08:41:15;13.34;81.01
76577;DHT22;65441;44.748;37.600;2022-12-08T08:43:43;13.39;80.18
76577;DHT22;65441;44.748;37.600;2022-12-08T08:46:12;13.68;81.79
76577;DHT22;65441;44.748;37.600;2022-12-08T08:48:41;13.75;80.52
76577;DHT22;65441;44.748;37.600;2022-12-08T08:51:11;13.89;79.66
76577;DHT22;65441;44.748;37.600;2022-12-08T08:53:42;13.83;80.17
76577;DHT22;65441;44.748;37.600;2022-12-08T08:56:12;14.08;78.52
76577;DHT22;65441;44.748;37.600;2022-12-08T08:58:41;14.11;78.38
76577;DHT22;65441;44.748;37.600;2022-12-08T09:01:15;14.40;79.05
76577;DHT22;65441;44.748;37.600;2022-12-08T09:03:44;14.22;76.92
76577;DHT22;65441;44.748;37.600;2022-12-08T09:06:14;14.19;76.69
76577;DHT22;65441;44.748;37.600;2022-12-08T09:08:45;13.90;78.08
76577;DHT22;65441;44.748;37.600;2022-12-08T09:11:21;13.90;78.01
76577;DHT22;65441;44.748;37.600;2022-12-08T09:13:51;14.20;78.20
76577;DHT22;65441;44.748;37.600;2022-12-08T09:16:22;14.52;78.08
76577;DHT22;65441;44.748;37.600;2022-12-08T09:18:51;14.54;77.45
76577;DHT22;65441;44.748;37.600;2022-12-08T09:21:22;14.17;77.78
76577;DHT22;65441;44.748;37.600;2022-12-08T09:23:55;13.93;78.10
76577;DHT22;65441;44.748;37.600;2022-12-08T09:26:24;13.86;79.29
76577;DHT22;65441;44.748;37.600;2022-12-08T09:28:55;13.89;79.62
76577;DHT22;65441;44.748;37.600;2022-12-08T09:31:24;13.89;78.53
76577;DHT22;65441;44.748;37.600;2022-12-08T09:33:53;13.63;80.22
76577;DHT22;65441;44.748;37.600;2022-12-08T09:36:22;13.70;79.43
76577;DHT22;65441;44.748;37.600;2022-12-08T09:38:51;13.59;79.16
76577;DHT22;65441;44.748;37.600;2022-12-08T09:41:27;13.50;80.12
76577;DHT22;65441;44.748;37.600;2022-12-08T09:44:06;13.30;79.84
76577;DHT22;65441;44.748;37.600;2022-12-08T09:46:40;13.27;80.54
76577;DHT22;65441;44.748;37.600;2022-12-08T09:49:13;13.37;80.46
76577;DHT22;65441;44.748;37.600;2022-12-08T09:51:44;13.44;80.99
76577;DHT22;65441;44.748;37.600;2022-12-08T09:54:17;13.56;80.29
76577;DHT22;65441;44.748;37.600;2022-12-08T09:56:50;13.64;79.23
76577;DHT22;65441;44.748;37.600;2022-12-08T09:59:22;13.53;78.09
76577;DHT22;65441;44.748;37.600;2022-12-08T10:01:52;13.56;78.54
76577;DHT22;65441;44.748;37.600;2022-12-08T10:04:24;13.47;78.64
76577;DHT22;65441;44.748;37.600;2022-12-08T10:06:59;13.41;79.50
76577;DHT22;65441;44.748;37.600;2022-12-08T10:09:37;13.26;79.37
76577;DHT22;65441;44.748;37.600;2022-12-08T10:12:16;13.31;79.30
76577;DHT22;65441;44.748;37.600;2022-12-08T10:14:49;13.63;78.65
76577;DHT22;65441;44.748;37.600;2022-12-08T10:17:23;13.61;78.34
76577;DHT22;65441;44.748;37.600;2022-12-08T10:19:58;13.55;77.95
76577;DHT22;65441;44.748;37.600;2022-12-08T10:22:32;13.49;78.47
76577;DHT22;65441;44.748;37.600;2022-12-08T10:25:09;13.47;78.92
76577;DHT22;65441;44.748;37.600;2022-12-08T10:27:41;13.80;78.56
76577;DHT22;65441;44.748;37.600;2022-12-08T10:30:12;14.11;77.89
76577;DHT22;65441;44.748;37.600;2022-12-08T10:32:44;14.01;77.58
76577;DHT22;65441;44.748;37.600;2022-12-08T10:35:14;13.88;77.22
76577;DHT22;65441;44.748;37.600;2022-12-08T10:37:54;13.68;77.99
76577;DHT22;65441;44.748;37.600;2022-12-08T10:40:26;13.65;78.27
76577;DHT22;65441;44.748;37.600;2022-12-08T10:42:58;13.50;78.11
76577;DHT22;65441;44.748;37.600;2022-12-08T10:45:28;13.41;78.94
76577;DHT22;65441;44.748;37.600;2022-12-08T10:48:00;13.26;79.08
76577;DHT22;65441;44.748;37.600;2022-12-08T10:50:34;13.39;79.64
76577;DHT22;65441;44.748;37.600;2022-12-08T10:53:11;13.45;79.81
76577;DHT22;65441;44.748;37.600;2022-12-08T10:55:42;13.51;78.66
76577;DHT22;65441;44.748;37.600;2022-12-08T10:58:29;13.53;79.01
76577;DHT22;65441;44.748;37.600;2022-12-08T11:01:03;13.48;79.14
76577;DHT22;65441;44.748;37.600;2022-12-08T11:03:35;13.35;79.77
76577;DHT22;65441;44.748;37.600;2022-12-08T11:06:12;13.22;80.49
76577;DHT22;65441;44.748;37.600;2022-12-08T11:08:46;13.18;80.91
76577;DHT22;65441;44.748;37.600;2022-12-08T11:11:16;13.19;80.01
76577;DHT22;65441;44.748;37.600;2022-12-08T11:13:49;13.10;80.10
76577;DHT22;65441;44.748;37.600;2022-12-08T11:16:18;13.16;80.71
76577;DHT22;65441;44.748;37.600;2022-12-08T11:18:56;13.10;79.46
76577;DHT22;65441;44.748;37.600;2022-12-08T11:21:34;13.09;79.72
76577;DHT22;65441;44.748;37.600;2022-12-08T11:24:20;13.06;80.17
76577;DHT22;65441;44.748;37.600;2022-12-08T11:26:52;13.10;80.04
76577;DHT22;65441;44.748;37.600;2022-12-08T11:29:23;13.10;79.88
76577;DHT22;65441;44.748;37.600;2022-12-08T11:31:55;13.12;79.47
76577;DHT22;65441;44.748;37.600;2022-12-08T11:34:32;13.03;79.75
76577;DHT22;65441;44.748;37.600;2022-12-08T11:37:04;12.95;80.29
76577;DHT22;65441;44.748;37.600;2022-12-08T11:39:35;12.92;79.67
76577;DHT22;65441;44.748;37.600;2022-12-08T11:42:13;12.85;79.86
76577;DHT22;65441;44.748;37.600;2022-12-08T11:44:50;12.79;79.92
76577;DHT22;65441;44.748;37.600;2022-12-08T11:47:24;12.81;79.78
76577;DHT22;65441;44.748;37.600;2022-12-08T11:49:59;12.81;80.36
76577;DHT22;65441;44.748;37.600;2022-12-08T11:52:32;12.81;80.33
76577;DHT22;65441;44.748;37.600;2022-12-08T11:55:23;12.76;80.81
76577;DHT22;65441;44.748;37.600;2022-12-08T11:57:56;12.74;80.59
76577;DHT22;65441;44.748;37.600;2022-12-08T12:00:29;12.76;80.69
76577;DHT22;65441;44.748;37.600;2022-12-08T12:03:03;12.70;81.15
76577;DHT22;65441;44.748;37.600;2022-12-08T12:05:40;12.76;80.85
76577;DHT22;65441;44.748;37.600;2022-12-08T12:08:21;12.73;80.81
76577;DHT22;65441;44.748;37.600;2022-12-08T12:11:02;12.67;80.85
76577;DHT22;65441;44.748;37.600;2022-12-08T12:13:45;12.71;80.06
76577;DHT22;65441;44.748;37.600;2022-12-08T12:16:42;12.74;80.18
76577;DHT22;65441;44.748;37.600;2022-12-08T12:19:15;12.85;80.79
76577;DHT22;65441;44.748;37.600;2022-12-08T12:21:47;12.82;80.33
76577;DHT22;65441;44.748;37.600;2022-12-08T12:24:19;12.82;79.53
76577;DHT22;65441;44.748;37.600;2022-12-08T12:26:55;12.82;79.66
76577;DHT22;65441;44.748;37.600;2022-12-08T12:29:28;12.75;79.74
76577;DHT22;65441;44.748;37.600;2022-12-08T12:32:01;12.73;80.10
76577;DHT22;65441;44.748;37.600;2022-12-08T12:34:33;12.76;79.71
76577;DHT22;65441;44.748;37.600;2022-12-08T12:37:05;12.72;80.12
76577;DHT22;65441;44.748;37.600;2022-12-08T12:39:46;12.81;80.00
76577;DHT22;65441;44.748;37.600;2022-12-08T12:42:38;12.82;80.17
76577;DHT22;65441;44.748;37.600;2022-12-08T12:45:22;12.80;80.36
76577;DHT22;65441;44.748;37.600;2022-12-08T12:48:13;12.78;80.39
76577;DHT22;65441;44.748;37.600;2022-12-08T12:50:48;12.76;80.66
76577;DHT22;65441;44.748;37.600;2022-12-08T12:53:48;12.73;81.40
76577;DHT22;65441;44.748;37.600;2022-12-08T12:56:50;12.62;81.14
76577;DHT22;65441;44.748;37.600;2022-12-08T12:59:35;12.62;81.20
76577;DHT22;65441;44.748;37.600;2022-12-08T13:02:16;12.50;81.57
76577;DHT22;65441;44.748;37.600;2022-12-08T13:04:56;12.44;81.90
76577;DHT22;65441;44.748;37.600;2022-12-08T13:07:26;12.47;81.95
76577;DHT22;65441;44.748;37.600;2022-12-08T13:09:58;12.36;82.25
76577;DHT22;65441;44.748;37.600;2022-12-08T13:12:28;12.29;82.51
76577;DHT22;65441;44.748;37.600;2022-12-08T13:15:12;12.30;82.75
76577;DHT22;65441;44.748;37.600;2022-12-08T13:17:45;12.34;82.49
76577;DHT22;65441;44.748;37.600;2022-12-08T13:20:21;12.30;82.57
76577;DHT22;65441;44.748;37.600;2022-12-08T13:23:12;12.32;82.62
76577;DHT22;65441;44.748;37.600;2022-12-08T13:26:08;12.25;82.87
76577;DHT22;65441;44.748;37.600;2022-12-08T13:29:03;12.31;82.62
76577;DHT22;65441;44.748;37.600;2022-12-08T13:31:35;12.29;82.75
76577;DHT22;65441;44.748;37.600;2022-12-08T13:34:06;12.27;82.58
76577;DHT22;65441;44.748;37.600;2022-12-08T13:36:42;12.19;82.37
76577;DHT22;65441;44.748;37.600;2022-12-08T13:39:20;12.12;82.48
76577;DHT22;65441;44.748;37.600;2022-12-08T13:41:56;12.02;82.58
76577;DHT22;65441;44.748;37.600;2022-12-08T13:44:30;12.00;82.57
76577;DHT22;65441;44.748;37.600;2022-12-08T13:47:03;11.99;82.64
76577;DHT22;65441;44.748;37.600;2022-12-08T13:49:34;11.97;82.34
76577;DHT22;65441;44.748;37.600;2022-12-08T13:52:13;11.93;82.20
76577;DHT22;65441;44.748;37.600;2022-12-08T13:54:43;11.90;82.15
76577;DHT22;65441;44.748;37.600;2022-12-08T13:57:23;11.82;82.04
76577;DHT22;65441;44.748;37.600;2022-12-08T13:59:52;11.76;82.46
76577;DHT22;65441;44.748;37.600;2022-12-08T14:02:26;11.71;81.65
76577;DHT22;65441;44.748;37.600;2022-12-08T14:04:56;11.60;81.72
76577;DHT22;65441;44.748;37.600;2022-12-08T14:07:26;11.44;82.45
76577;DHT22;65441;44.748;37.600;2022-12-08T14:09:55;11.37;82.23
76577;DHT22;65441;44.748;37.600;2022-12-08T14:12:26;11.33;82.16
76577;DHT22;65441;44.748;37.600;2022-12-08T14:14:58;11.28;82.88
76577;DHT22;65441;44.748;37.600;2022-12-08T14:17:27;11.29;82.09
76577;DHT22;65441;44.748;37.600;2022-12-08T14:19:58;11.19;82.59
76577;DHT22;65441;44.748;37.600;2022-12-08T14:22:33;11.13;83.12
76577;DHT22;65441;44.748;37.600;2022-12-08T14:25:04;11.08;83.00
76577;DHT22;65441;44.748;37.600;2022-12-08T14:27:35;11.04;83.02
76577;DHT22;65441;44.748;37.600;2022-12-08T14:30:06;10.97;82.91
76577;DHT22;65441;44.748;37.600;2022-12-08T14:32:37;10.96;82.87
76577;DHT22;65441;44.748;37.600;2022-12-08T14:35:19;10.92;83.60
76577;DHT22;65441;44.748;37.600;2022-12-08T14:37:54;10.85;83.08
76577;DHT22;65441;44.748;37.600;2022-12-08T14:40:28;10.84;84.16
76577;DHT22;65441;44.748;37.600;2022-12-08T14:43:11;10.81;85.27
76577;DHT22;65441;44.748;37.600;2022-12-08T14:45:49;10.89;84.53
76577;DHT22;65441;44.748;37.600;2022-12-08T14:48:23;10.86;85.35
76577;DHT22;65441;44.748;37.600;2022-12-08T14:51:05;10.87;85.20
76577;DHT22;65441;44.748;37.600;2022-12-08T14:53:38;10.87;84.81
76577;DHT22;65441;44.748;37.600;2022-12-08T14:56:14;10.86;81.94
76577;DHT22;65441;44.748;37.600;2022-12-08T14:58:46;10.66;81.48
76577;DHT22;65441;44.748;37.600;2022-12-08T15:01:20;10.48;82.10
76577;DHT22;65441;44.748;37.600;2022-12-08T15:03:49;10.30;82.15
76577;DHT22;65441;44.748;37.600;2022-12-08T15:06:19;10.16;83.03
76577;DHT22;65441;44.748;37.600;2022-12-08T15:08:53;10.08;83.01
76577;DHT22;65441;44.748;37.600;2022-12-08T15:11:30;9.91;83.78
76577;DHT22;65441;44.748;37.600;2022-12-08T15:13:59;9.82;82.83
76577;DHT22;65441;44.748;37.600;2022-12-08T15:16:30;9.77;83.39
76577;DHT22;65441;44.748;37.600;2022-12-08T15:19:15;9.78;81.98
76577;DHT22;65441;44.748;37.600;2022-12-08T15:21:45;9.67;82.91
76577;DHT22;65441;44.748;37.600;2022-12-08T15:24:16;9.56;82.97
76577;DHT22;65441;44.748;37.600;2022-12-08T15:26:48;9.53;82.99
76577;DHT22;65441;44.748;37.600;2022-12-08T15:29:19;9.44;84.33
76577;DHT22;65441;44.748;37.600;2022-12-08T15:31:49;9.44;83.57
76577;DHT22;65441;44.748;37.600;2022-12-08T15:34:20;9.31;82.68
76577;DHT22;65441;44.748;37.600;2022-12-08T15:36:50;9.19;85.22
76577;DHT22;65441;44.748;37.600;2022-12-08T15:39:28;9.20;86.83
76577;DHT22;65441;44.748;37.600;2022-12-08T15:41:59;9.23;83.54
76577;DHT22;65441;44.748;37.600;2022-12-08T15:44:28;9.14;83.26
76577;DHT22;65441;44.748;37.600;2022-12-08T15:47:03;9.18;81.06
76577;DHT22;65441;44.748;37.600;2022-12-08T15:49:33;9.17;81.77
76577;DHT22;65441;44.748;37.600;2022-12-08T15:52:02;9.17;81.65
76577;DHT22;65441;44.748;37.600;2022-12-08T15:54:32;9.06;81.78